ESSB/BMA METAR and TAF weather

Enter ICAO airport designator
Station Type Date Time Source
ESSB METAR 2018/04/21 20:50 UTC NOAA

ESSB 212050Z AUTO 29003KT 9999 NCD 09/M01 Q1011


Station Type Date Time Source
ESSB Decoded METAR 2018/04/21 20:50 UTC NOAA

Stockholm / Bromma, Sweden (ESSB) 59-21N 017-57E 14M
Apr 21, 2018 - 04:50 PM EDT / 2018.04.21 2050 UTC
Wind: from the WNW (290 degrees) at 3 MPH (3 KT):0
Visibility: greater than 7 mile(s):0
Temperature: 48 F (9 C)
Dew Point: 30 F (-1 C)
Relative Humidity: 49%
Pressure (altimeter): 29.85 in. Hg (1011 hPa)
ob: ESSB 212050Z AUTO 29003KT 9999 NCD 09/M01 Q1011
cycle: 21

Station Type Date Time Source
ESSB TAF 2017/03/27 06:35 UTC NOAA

TAF ESSB 270530Z 2706/2724 27008KT CAVOK
BECMG 2710/2713 29015G25KT


Example: see airport list